Time;durP1;ratioP1;P1;durP2;ratioP2;P2;SDS_P1;SDS_P2;PMS_P1;PMS_P2;Temp;Humidity;BMP_temperature;BMP_pressure;BME280_temperature;BME280_humidity;BME280_pressure;Samples;Min_cycle;Max_cycle;Signal;HPM_P1;HPM_P2
2024/01/09 00:01:47;;;;;;;0.70;0.30;;;22.30;38.90;;;;;;5117890;28;20039;-33
2024/01/09 00:04:13;;;;;;;0.30;0.30;;;22.30;38.90;;;;;;5120950;28;20024;-34
2024/01/09 00:06:39;;;;;;;0.40;0.30;;;22.30;38.90;;;;;;5119687;28;20020;-37
2024/01/09 00:09:05;;;;;;;0.38;0.38;;;22.30;38.90;;;;;;5118197;28;20032;-36
2024/01/09 00:11:31;;;;;;;0.30;0.30;;;22.30;38.90;;;;;;5114841;28;20686;-34
2024/01/09 00:13:57;;;;;;;0.68;0.38;;;22.30;38.90;;;;;;5118801;28;20027;-33
2024/01/09 00:16:23;;;;;;;1.13;0.40;;;22.20;38.90;;;;;;5121278;28;20028;-35
2024/01/09 00:18:53;;;;;;;0.40;0.30;;;22.20;39.00;;;;;;5114393;28;20024;-34
2024/01/09 00:21:22;;;;;;;0.45;0.45;;;22.30;39.00;;;;;;5111794;28;20038;-33
2024/01/09 00:23:49;;;;;;;0.63;0.40;;;22.30;38.90;;;;;;5111574;27;20069;-35
2024/01/09 00:26:15;;;;;;;1.00;0.30;;;22.30;38.90;;;;;;5110073;27;20035;-34
2024/01/09 00:28:41;;;;;;;0.50;0.40;;;22.30;39.00;;;;;;5121470;28;20408;-33
2024/01/09 00:31:07;;;;;;;0.30;0.25;;;22.20;39.00;;;;;;5113762;28;20043;-32
2024/01/09 00:33:33;;;;;;;0.28;0.28;;;22.20;39.10;;;;;;5100658;28;20168;-34
2024/01/09 00:36:01;;;;;;;0.90;0.50;;;22.20;39.00;;;;;;5124281;27;20031;-33
2024/01/09 00:38:27;;;;;;;0.82;0.40;;;22.30;38.90;;;;;;5117937;28;20138;-31
2024/01/09 00:40:54;;;;;;;1.35;0.30;;;22.30;38.90;;;;;;5111271;28;20066;-35
2024/01/09 00:43:20;;;;;;;0.60;0.30;;;22.30;39.00;;;;;;5123339;28;20020;-33
2024/01/09 00:45:46;;;;;;;0.57;0.50;;;22.20;38.90;;;;;;5116846;28;20023;-32
2024/01/09 00:48:12;;;;;;;1.85;0.50;;;22.20;39.10;;;;;;5113828;28;20023;-34
2024/01/09 00:50:38;;;;;;;1.20;0.40;;;22.20;39.00;;;;;;5118771;28;22263;-33
2024/01/09 00:53:05;;;;;;;0.52;0.38;;;22.30;38.90;;;;;;5117035;28;20119;-33
2024/01/09 00:55:31;;;;;;;0.30;0.30;;;22.30;39.00;;;;;;5096484;28;20870;-34
2024/01/09 00:57:57;;;;;;;0.60;0.50;;;22.30;39.00;;;;;;5113573;28;20126;-33
2024/01/09 01:00:23;;;;;;;0.93;0.40;;;22.20;39.10;;;;;;5097854;28;20048;-35
2024/01/09 01:02:49;;;;;;;0.95;0.40;;;22.20;39.10;;;;;;5117872;28;20078;-34
2024/01/09 01:05:16;;;;;;;0.40;0.40;;;22.20;39.00;;;;;;5112728;28;20031;-33
2024/01/09 01:07:42;;;;;;;0.40;0.40;;;22.20;38.90;;;;;;5112917;28;20031;-34
2024/01/09 01:10:13;;;;;;;0.50;0.40;;;22.20;38.90;;;;;;5109194;27;20024;-36
2024/01/09 01:12:39;;;;;;;0.57;0.50;;;22.20;38.90;;;;;;5100434;28;20306;-34
2024/01/09 01:15:06;;;;;;;0.90;0.50;;;22.20;39.00;;;;;;5108376;28;20024;-35
2024/01/09 01:17:32;;;;;;;0.40;0.30;;;22.20;39.10;;;;;;5109795;28;20036;-36
2024/01/09 01:19:58;;;;;;;1.85;0.50;;;22.20;39.00;;;;;;5111784;27;20038;-32
2024/01/09 01:22:25;;;;;;;0.55;0.45;;;22.20;38.90;;;;;;5109749;28;20062;-36
2024/01/09 01:24:51;;;;;;;0.65;0.40;;;22.20;38.90;;;;;;5116348;28;20020;-35
2024/01/09 01:27:17;;;;;;;1.33;0.40;;;22.20;38.90;;;;;;5112549;28;20669;-34
2024/01/09 01:29:43;;;;;;;0.30;0.30;;;22.20;38.90;;;;;;5111854;28;20023;-36
2024/01/09 01:32:10;;;;;;;0.47;0.47;;;22.20;39.00;;;;;;5117124;28;20086;-35
2024/01/09 01:34:37;;;;;;;0.40;0.30;;;22.20;39.10;;;;;;5114768;28;20051;-32
2024/01/09 01:37:03;;;;;;;0.30;0.30;;;22.20;39.00;;;;;;5117257;28;20032;-36
2024/01/09 01:39:29;;;;;;;0.40;0.30;;;22.20;38.90;;;;;;5110021;28;20028;-32
2024/01/09 01:41:56;;;;;;;0.60;0.43;;;22.20;39.00;;;;;;5112774;28;20035;-30
2024/01/09 01:44:22;;;;;;;0.40;0.40;;;22.20;39.10;;;;;;5113028;28;20065;-31
2024/01/09 01:46:48;;;;;;;0.70;0.47;;;22.10;39.30;;;;;;5114848;28;20038;-30
2024/01/09 01:49:16;;;;;;;0.47;0.40;;;22.10;39.50;;;;;;5108513;28;20051;-33
2024/01/09 01:51:42;;;;;;;0.85;0.40;;;22.20;39.30;;;;;;5100257;28;20048;-30
2024/01/09 01:54:08;;;;;;;0.80;0.50;;;22.20;39.80;;;;;;5092847;28;20039;-32
2024/01/09 01:56:35;;;;;;;2.33;0.50;;;22.20;39.20;;;;;;5113863;28;20031;-33
2024/01/09 01:59:02;;;;;;;1.00;0.30;;;22.20;39.30;;;;;;5111307;28;20019;-31
2024/01/09 02:01:28;;;;;;;7.03;0.60;;;22.20;39.40;;;;;;5094087;28;20020;-33
2024/01/09 02:03:54;;;;;;;1.52;0.60;;;22.20;39.70;;;;;;5096683;28;20794;-29
2024/01/09 02:06:21;;;;;;;6.63;0.50;;;22.20;39.70;;;;;;5118113;28;20028;-31
2024/01/09 02:08:48;;;;;;;1.10;0.60;;;22.30;39.70;;;;;;5114161;28;20304;-30
2024/01/09 02:11:14;;;;;;;2.70;0.60;;;22.20;39.60;;;;;;5115696;28;20042;-31
2024/01/09 02:13:40;;;;;;;2.15;0.40;;;22.20;39.70;;;;;;5119931;28;20079;-29
2024/01/09 02:16:06;;;;;;;1.92;0.70;;;22.20;39.70;;;;;;5117281;28;20019;-32
2024/01/09 02:18:32;;;;;;;0.60;0.40;;;22.10;39.70;;;;;;5101992;28;20065;-30
2024/01/09 02:20:58;;;;;;;0.50;0.40;;;22.20;39.60;;;;;;5117828;28;20027;-33
2024/01/09 02:23:25;;;;;;;1.00;0.40;;;22.20;39.60;;;;;;5107832;28;20092;-32
2024/01/09 02:25:52;;;;;;;0.40;0.40;;;22.20;39.60;;;;;;5115398;28;20024;-34
2024/01/09 02:28:29;;;;;;;0.80;0.50;;;22.20;39.60;;;;;;5096763;28;20036;-30
2024/01/09 02:30:55;;;;;;;0.75;0.43;;;22.20;39.60;;;;;;5094014;28;20035;-32
2024/01/09 02:33:21;;;;;;;1.77;0.30;;;22.10;39.50;;;;;;5118488;28;20025;-30
2024/01/09 02:35:47;;;;;;;0.55;0.50;;;22.10;39.60;;;;;;5120086;28;20102;-30
2024/01/09 02:38:13;;;;;;;0.57;0.47;;;22.20;39.70;;;;;;5113233;28;20028;-29
2024/01/09 02:40:40;;;;;;;0.60;0.50;;;22.20;39.60;;;;;;5087795;28;20031;-30
2024/01/09 02:43:07;;;;;;;0.73;0.50;;;22.20;39.70;;;;;;5106085;28;20027;-32
2024/01/09 02:45:33;;;;;;;2.85;0.40;;;22.10;39.70;;;;;;5116822;28;20034;-30
2024/01/09 02:48:00;;;;;;;0.40;0.37;;;22.10;39.60;;;;;;5120828;28;20061;-31
2024/01/09 02:50:35;;;;;;;0.50;0.50;;;22.10;39.70;;;;;;5112390;27;20443;-31
2024/01/09 02:53:01;;;;;;;1.00;0.40;;;22.10;39.80;;;;;;5100832;28;20032;-32
2024/01/09 02:55:28;;;;;;;1.27;0.50;;;22.20;39.80;;;;;;5097709;28;20050;-33
2024/01/09 02:57:54;;;;;;;0.70;0.50;;;22.10;39.70;;;;;;5098873;28;20024;-33
2024/01/09 03:00:20;;;;;;;3.25;0.47;;;22.10;39.80;;;;;;5109109;28;20032;-34
2024/01/09 03:02:46;;;;;;;0.73;0.50;;;22.10;39.90;;;;;;5098384;28;20025;-30
2024/01/09 03:05:12;;;;;;;1.05;0.70;;;22.10;40.40;;;;;;5093420;28;20016;-31
2024/01/09 03:07:38;;;;;;;0.60;0.50;;;22.10;40.10;;;;;;5099012;28;20096;-31
2024/01/09 03:10:06;;;;;;;0.93;0.40;;;22.10;40.00;;;;;;5099685;28;20048;-34
2024/01/09 03:12:32;;;;;;;0.82;0.55;;;22.10;40.00;;;;;;5099803;28;20111;-34
2024/01/09 03:14:58;;;;;;;1.20;0.55;;;22.10;40.00;;;;;;5095571;28;20040;-31
2024/01/09 03:17:24;;;;;;;0.90;0.60;;;22.10;39.90;;;;;;5097363;28;20032;-29
2024/01/09 03:19:50;;;;;;;0.68;0.68;;;22.10;40.00;;;;;;5112073;28;20039;-33
2024/01/09 03:22:16;;;;;;;2.38;0.47;;;22.10;40.00;;;;;;5093241;28;20024;-33
2024/01/09 03:24:43;;;;;;;0.80;0.50;;;22.10;40.00;;;;;;5094971;28;20036;-31
2024/01/09 03:27:09;;;;;;;0.80;0.57;;;22.10;40.10;;;;;;5097010;28;20028;-32
2024/01/09 03:29:36;;;;;;;0.50;0.50;;;22.10;40.20;;;;;;5096112;28;20044;-31
2024/01/09 03:32:02;;;;;;;1.02;0.50;;;22.10;40.50;;;;;;5097640;28;20215;-29
2024/01/09 03:34:28;;;;;;;0.40;0.40;;;22.10;40.50;;;;;;5097427;28;20032;-30
2024/01/09 03:36:54;;;;;;;0.68;0.65;;;22.10;40.50;;;;;;5094792;28;20051;-28
2024/01/09 03:39:20;;;;;;;0.60;0.40;;;22.10;40.50;;;;;;5094603;28;20038;-31
2024/01/09 03:41:46;;;;;;;1.33;0.65;;;22.10;40.60;;;;;;5093706;28;20059;-33
2024/01/09 03:44:12;;;;;;;0.50;0.50;;;22.10;40.70;;;;;;5091940;28;20020;-30
2024/01/09 03:46:59;;;;;;;0.73;0.30;;;22.10;40.80;;;;;;5051914;28;20044;-30
2024/01/09 03:49:25;;;;;;;2.20;0.57;;;22.10;40.70;;;;;;5049371;28;20079;-30
2024/01/09 03:51:51;;;;;;;2.00;0.50;;;22.10;40.70;;;;;;5056043;28;20040;-30
2024/01/09 03:54:17;;;;;;;0.93;0.50;;;22.10;40.60;;;;;;5050129;28;20048;-33
2024/01/09 03:56:43;;;;;;;0.70;0.50;;;22.10;40.70;;;;;;5051149;28;20025;-35
2024/01/09 03:59:09;;;;;;;0.47;0.45;;;22.10;40.80;;;;;;5052976;28;20567;-32
2024/01/09 04:01:38;;;;;;;0.70;0.50;;;22.10;40.80;;;;;;5038436;28;20030;-35
2024/01/09 04:04:04;;;;;;;1.05;0.52;;;22.10;40.80;;;;;;5023160;28;20040;-33
2024/01/09 04:06:30;;;;;;;1.75;0.50;;;22.10;40.70;;;;;;5037630;28;20044;-30
2024/01/09 04:08:56;;;;;;;0.60;0.47;;;22.10;40.70;;;;;;5038678;28;20075;-30
2024/01/09 04:11:22;;;;;;;0.82;0.50;;;22.10;40.70;;;;;;5036935;28;20034;-32
2024/01/09 04:13:49;;;;;;;0.50;0.40;;;22.10;40.80;;;;;;5039018;28;20113;-29
2024/01/09 04:16:15;;;;;;;0.68;0.50;;;22.10;40.90;;;;;;5039810;28;20064;-31
2024/01/09 04:18:41;;;;;;;0.95;0.40;;;22.10;40.80;;;;;;5036780;28;20132;-29
2024/01/09 04:21:07;;;;;;;0.93;0.45;;;22.10;40.80;;;;;;5036217;28;21690;-30
2024/01/09 04:23:33;;;;;;;0.85;0.50;;;22.10;40.70;;;;;;5049127;28;20063;-32
2024/01/09 04:26:00;;;;;;;0.57;0.50;;;22.10;40.80;;;;;;5079809;28;20028;-33
2024/01/09 04:28:26;;;;;;;0.47;0.40;;;22.10;40.90;;;;;;5083337;28;20074;-32
2024/01/09 04:30:53;;;;;;;0.90;0.40;;;22.10;40.90;;;;;;5078796;28;20031;-34
2024/01/09 04:33:19;;;;;;;0.50;0.47;;;22.10;40.90;;;;;;5079347;28;20028;-30
2024/01/09 04:35:46;;;;;;;0.75;0.50;;;22.10;40.80;;;;;;5078598;28;20056;-31
2024/01/09 04:38:12;;;;;;;0.40;0.40;;;22.10;40.80;;;;;;5080857;28;20021;-34
2024/01/09 04:40:38;;;;;;;0.40;0.40;;;22.10;40.80;;;;;;5084650;28;20028;-30
2024/01/09 04:43:04;;;;;;;0.70;0.40;;;22.00;40.80;;;;;;5086143;28;20024;-29
2024/01/09 04:45:30;;;;;;;0.50;0.50;;;22.00;40.80;;;;;;5084250;28;20036;-30
2024/01/09 04:47:56;;;;;;;0.40;0.30;;;22.10;40.80;;;;;;5084643;28;20060;-32
2024/01/09 04:50:23;;;;;;;0.45;0.32;;;22.10;40.80;;;;;;5084359;28;20102;-29
2024/01/09 04:52:49;;;;;;;1.27;0.57;;;22.10;40.70;;;;;;5084147;28;20481;-31
2024/01/09 04:55:15;;;;;;;0.45;0.35;;;22.10;40.80;;;;;;5084175;28;20513;-31
2024/01/09 04:57:42;;;;;;;0.30;0.30;;;22.00;40.70;;;;;;5083824;28;20024;-32
2024/01/09 05:00:09;;;;;;;0.63;0.43;;;22.00;40.80;;;;;;5084198;28;20028;-32
2024/01/09 05:02:35;;;;;;;1.95;0.50;;;22.10;40.70;;;;;;5066549;28;20040;-31
2024/01/09 05:05:02;;;;;;;0.50;0.40;;;22.10;40.70;;;;;;5084494;28;20473;-34
2024/01/09 05:07:28;;;;;;;0.65;0.38;;;22.10;40.70;;;;;;5090282;28;20552;-33
2024/01/09 05:09:54;;;;;;;0.50;0.40;;;22.00;40.70;;;;;;5084166;28;20048;-33
2024/01/09 05:12:20;;;;;;;0.30;0.30;;;22.00;40.70;;;;;;5076559;28;20029;-30
2024/01/09 05:14:47;;;;;;;0.43;0.38;;;22.00;40.80;;;;;;5084061;28;20032;-28
2024/01/09 05:17:14;;;;;;;0.30;0.30;;;22.10;40.80;;;;;;5082949;28;20017;-32
2024/01/09 05:19:40;;;;;;;1.70;0.30;;;22.10;40.70;;;;;;5081660;28;20029;-30
2024/01/09 05:22:06;;;;;;;0.60;0.50;;;22.10;40.80;;;;;;5084818;28;20033;-29
2024/01/09 05:24:32;;;;;;;0.38;0.38;;;22.00;40.80;;;;;;5079666;28;20032;-34
2024/01/09 05:26:58;;;;;;;0.43;0.43;;;22.00;40.80;;;;;;5082063;28;20020;-32
2024/01/09 05:29:24;;;;;;;0.70;0.35;;;22.00;40.70;;;;;;5082429;28;20044;-27
2024/01/09 05:31:51;;;;;;;1.67;0.40;;;22.10;40.80;;;;;;5083813;28;20040;-33
2024/01/09 05:34:17;;;;;;;1.92;0.50;;;22.10;40.80;;;;;;5082845;28;20032;-32
2024/01/09 05:36:43;;;;;;;0.63;0.40;;;22.00;40.70;;;;;;5083805;28;20358;-29
2024/01/09 05:39:09;;;;;;;0.55;0.40;;;22.00;40.70;;;;;;5082888;28;20025;-28
2024/01/09 05:41:35;;;;;;;1.52;0.40;;;22.00;41.20;;;;;;5081776;28;20055;-28
2024/01/09 05:44:02;;;;;;;0.30;0.30;;;22.00;41.20;;;;;;5081139;28;20025;-30
2024/01/09 05:46:28;;;;;;;2.42;0.38;;;22.10;41.00;;;;;;5081749;28;20028;-29
2024/01/09 05:48:54;;;;;;;0.50;0.40;;;22.10;41.10;;;;;;5077516;28;20044;-28
2024/01/09 05:51:20;;;;;;;0.45;0.40;;;22.00;41.10;;;;;;5075793;28;20025;-28
2024/01/09 05:53:47;;;;;;;0.80;0.30;;;22.00;41.00;;;;;;5082572;28;20056;-29
2024/01/09 05:56:13;;;;;;;0.47;0.40;;;22.00;41.10;;;;;;5071298;28;20025;-29
2024/01/09 05:58:39;;;;;;;0.40;0.30;;;22.00;41.00;;;;;;5079465;28;20067;-31
2024/01/09 06:01:05;;;;;;;0.32;0.30;;;22.10;41.00;;;;;;5080916;28;20456;-29
2024/01/09 06:03:31;;;;;;;0.93;0.38;;;22.10;41.00;;;;;;5083156;28;20032;-30
2024/01/09 06:05:58;;;;;;;0.40;0.40;;;22.10;41.10;;;;;;5081657;28;20043;-29
2024/01/09 06:08:24;;;;;;;0.28;0.20;;;22.00;41.10;;;;;;5080395;28;20032;-30
2024/01/09 06:10:50;;;;;;;0.45;0.30;;;22.00;41.20;;;;;;5074249;28;20053;-32
2024/01/09 06:13:16;;;;;;;0.60;0.30;;;22.00;41.10;;;;;;5078655;28;20024;-29
2024/01/09 06:15:42;;;;;;;0.50;0.50;;;22.10;41.20;;;;;;5078266;28;20028;-29
2024/01/09 06:18:08;;;;;;;0.25;0.20;;;22.10;41.20;;;;;;5081859;28;20131;-28
2024/01/09 06:20:35;;;;;;;0.40;0.30;;;22.00;41.20;;;;;;5081587;28;20110;-30
2024/01/09 06:23:01;;;;;;;0.30;0.20;;;22.00;41.20;;;;;;5079535;28;20056;-33
2024/01/09 06:25:27;;;;;;;0.30;0.20;;;22.00;41.30;;;;;;5076879;28;20077;-29
2024/01/09 06:27:53;;;;;;;0.20;0.20;;;22.00;41.20;;;;;;5079423;28;20065;-29
2024/01/09 06:30:19;;;;;;;0.60;0.30;;;22.10;41.20;;;;;;5081472;28;20079;-31
2024/01/09 06:32:45;;;;;;;0.75;0.32;;;22.10;41.20;;;;;;5082014;28;20028;-29
2024/01/09 06:35:11;;;;;;;0.43;0.35;;;22.00;41.20;;;;;;5077263;28;20074;-30
2024/01/09 06:37:38;;;;;;;0.20;0.20;;;22.00;41.20;;;;;;5081676;28;20025;-30
2024/01/09 06:40:04;;;;;;;0.20;0.20;;;22.00;41.30;;;;;;5081470;28;20107;-32
2024/01/09 06:42:30;;;;;;;0.40;0.30;;;22.00;41.20;;;;;;5080888;28;20020;-31
2024/01/09 06:44:56;;;;;;;0.40;0.30;;;22.10;41.20;;;;;;5079257;28;20051;-34
2024/01/09 06:47:23;;;;;;;0.30;0.25;;;22.10;41.20;;;;;;5080315;28;20027;-28
2024/01/09 06:49:49;;;;;;;0.30;0.20;;;22.00;41.20;;;;;;5080614;28;20152;-31
2024/01/09 06:52:15;;;;;;;0.40;0.20;;;22.00;41.20;;;;;;5079321;28;20054;-29
2024/01/09 06:54:41;;;;;;;0.47;0.30;;;22.00;41.30;;;;;;5073461;28;20025;-32
2024/01/09 06:57:07;;;;;;;0.25;0.20;;;22.00;41.20;;;;;;5080136;28;20028;-30
2024/01/09 06:59:34;;;;;;;0.20;0.20;;;22.10;41.20;;;;;;5079599;28;20405;-32
2024/01/09 07:02:01;;;;;;;0.20;0.20;;;22.10;41.30;;;;;;5077947;28;20493;-32
2024/01/09 07:04:27;;;;;;;0.77;0.30;;;22.00;41.30;;;;;;5081627;28;20046;-34
2024/01/09 07:06:53;;;;;;;0.13;0.10;;;22.00;41.30;;;;;;5078973;28;20029;-31
2024/01/09 07:09:19;;;;;;;0.20;0.20;;;22.00;41.30;;;;;;5078813;28;20028;-31
2024/01/09 07:11:45;;;;;;;0.55;0.30;;;22.00;41.20;;;;;;5080844;28;20036;-29
2024/01/09 07:14:11;;;;;;;1.05;0.20;;;22.10;41.30;;;;;;5081496;28;20032;-32
2024/01/09 07:16:38;;;;;;;0.30;0.30;;;22.10;41.30;;;;;;5061550;28;20051;-30
2024/01/09 07:19:04;;;;;;;0.25;0.20;;;22.00;41.30;;;;;;5073361;28;20033;-32
2024/01/09 07:21:30;;;;;;;1.35;0.30;;;22.00;41.40;;;;;;5076790;28;20063;-31
2024/01/09 07:23:56;;;;;;;0.10;0.10;;;22.00;41.40;;;;;;5080954;28;20039;-30
2024/01/09 07:26:22;;;;;;;0.40;0.20;;;22.00;41.40;;;;;;5080246;28;20536;-32
2024/01/09 07:28:48;;;;;;;0.20;0.20;;;22.00;41.30;;;;;;5074962;28;20039;-29
2024/01/09 07:31:15;;;;;;;0.35;0.20;;;22.00;41.40;;;;;;5078435;28;20040;-33
2024/01/09 07:33:41;;;;;;;1.48;0.10;;;22.00;41.30;;;;;;5071838;28;20024;-32
2024/01/09 07:36:07;;;;;;;0.20;0.20;;;22.00;41.40;;;;;;5089988;28;20056;-32
2024/01/09 07:38:33;;;;;;;0.40;0.20;;;22.00;41.40;;;;;;5085483;28;20020;-33
2024/01/09 07:40:59;;;;;;;0.20;0.20;;;22.00;41.40;;;;;;5067479;28;20051;-32
2024/01/09 07:43:25;;;;;;;0.52;0.20;;;22.00;41.30;;;;;;5081750;28;20024;-32
2024/01/09 07:45:52;;;;;;;0.10;0.10;;;22.00;41.30;;;;;;5085002;28;20028;-29
2024/01/09 07:48:18;;;;;;;0.20;0.20;;;22.00;41.40;;;;;;5084665;28;20035;-32
2024/01/09 07:50:44;;;;;;;0.20;0.20;;;22.00;41.50;;;;;;5089940;28;20044;-29
2024/01/09 07:53:11;;;;;;;0.10;0.10;;;22.00;41.40;;;;;;5085297;28;20032;-30
2024/01/09 07:55:37;;;;;;;0.10;0.10;;;22.00;41.40;;;;;;5050220;28;20653;-29
2024/01/09 07:58:05;;;;;;;0.10;0.10;;;22.00;41.40;;;;;;5084843;28;20089;-30
2024/01/09 08:00:34;;;;;;;0.30;0.22;;;22.00;41.40;;;;;;5085074;28;20039;-30
2024/01/09 08:03:02;;;;;;;0.13;0.13;;;22.00;41.40;;;;;;5083615;28;20058;-31
2024/01/09 08:05:29;;;;;;;0.20;0.20;;;22.00;41.50;;;;;;5090006;28;20058;-31
2024/01/09 08:07:55;;;;;;;0.20;0.20;;;22.00;42.10;;;;;;5086469;28;20036;-29
2024/01/09 08:10:21;;;;;;;0.20;0.20;;;22.00;41.50;;;;;;5082037;28;20053;-31
2024/01/09 08:12:47;;;;;;;0.73;0.20;;;22.10;41.50;;;;;;5083263;28;20500;-30
2024/01/09 08:15:14;;;;;;;0.52;0.30;;;22.00;41.50;;;;;;5083891;28;20034;-28
2024/01/09 08:17:40;;;;;;;1.20;0.40;;;22.00;41.50;;;;;;5082383;28;20039;-29
2024/01/09 08:20:07;;;;;;;1.13;0.20;;;22.00;41.60;;;;;;5084917;28;20043;-31
2024/01/09 08:22:33;;;;;;;0.93;0.17;;;22.00;41.60;;;;;;5085073;28;20051;-28
2024/01/09 08:25:00;;;;;;;1.30;0.35;;;22.00;41.50;;;;;;5084305;28;20484;-30
2024/01/09 08:27:26;;;;;;;;;;;22.00;41.50;;;;;;5085489;28;20043;-30
2024/01/09 08:29:52;;;;;;;0.38;0.28;;;22.00;41.60;;;;;;5084675;28;19920;-32
2024/01/09 08:32:18;;;;;;;0.40;0.20;;;22.00;41.60;;;;;;5083240;28;20017;-32
2024/01/09 08:34:44;;;;;;;0.90;0.20;;;22.00;41.80;;;;;;5085142;28;20068;-29
2024/01/09 08:37:10;;;;;;;0.35;0.17;;;22.00;41.80;;;;;;5091295;28;20116;-30
2024/01/09 08:39:37;;;;;;;0.10;0.10;;;22.00;41.70;;;;;;5084737;28;20036;-33
2024/01/09 08:42:03;;;;;;;0.55;0.25;;;22.10;41.80;;;;;;5089528;28;20044;-30
2024/01/09 08:44:29;;;;;;;0.30;0.20;;;22.00;41.70;;;;;;5084578;28;20051;-31
2024/01/09 08:46:55;;;;;;;0.57;0.20;;;22.00;41.80;;;;;;5084467;28;20600;-28
2024/01/09 08:49:21;;;;;;;0.20;0.10;;;22.00;41.90;;;;;;5084442;28;20112;-32
2024/01/09 08:51:48;;;;;;;0.40;0.20;;;22.00;41.80;;;;;;5084888;28;20155;-30
2024/01/09 08:54:14;;;;;;;0.20;0.10;;;22.00;41.70;;;;;;5084197;28;20087;-32
2024/01/09 08:56:42;;;;;;;0.10;0.10;;;22.10;41.80;;;;;;5084413;28;20029;-30
2024/01/09 08:59:09;;;;;;;1.10;0.17;;;22.00;41.80;;;;;;5081834;28;20284;-34
2024/01/09 09:01:38;;;;;;;0.20;0.10;;;22.00;41.80;;;;;;5084503;28;20029;-35
2024/01/09 09:04:04;;;;;;;0.10;0.10;;;22.00;41.90;;;;;;5082555;28;20285;-29
2024/01/09 09:06:30;;;;;;;0.10;0.10;;;22.00;41.90;;;;;;5083681;28;20032;-30
2024/01/09 09:08:57;;;;;;;0.20;0.10;;;22.10;41.90;;;;;;5082232;28;20056;-30
2024/01/09 09:11:23;;;;;;;0.10;0.10;;;22.10;41.90;;;;;;5083331;28;20066;-33
2024/01/09 09:13:49;;;;;;;0.10;0.10;;;22.00;41.90;;;;;;5080961;28;20040;-33
2024/01/09 09:16:15;;;;;;;0.30;0.10;;;22.00;42.00;;;;;;5083866;28;20054;-35
2024/01/09 09:18:42;;;;;;;0.10;0.10;;;22.00;42.00;;;;;;5084050;28;20028;-32
2024/01/09 09:21:08;;;;;;;0.10;0.10;;;22.00;42.00;;;;;;5082705;28;20032;-33
2024/01/09 09:23:35;;;;;;;0.20;0.10;;;22.10;41.90;;;;;;5083778;28;20471;-31
2024/01/09 09:26:01;;;;;;;0.43;0.10;;;22.10;41.90;;;;;;5082491;28;20054;-31
2024/01/09 09:28:27;;;;;;;0.10;0.10;;;22.00;42.00;;;;;;5082838;28;20028;-33
2024/01/09 09:30:53;;;;;;;0.10;0.10;;;22.00;42.00;;;;;;5083317;28;20036;-29
2024/01/09 09:33:20;;;;;;;0.10;0.10;;;22.00;42.10;;;;;;5082982;28;20432;-31
2024/01/09 09:35:46;;;;;;;0.10;0.10;;;22.00;42.00;;;;;;5090414;28;20032;-31
2024/01/09 09:38:14;;;;;;;0.10;0.10;;;22.10;42.00;;;;;;5064942;28;20048;-36
2024/01/09 09:40:41;;;;;;;0.00;0.00;;;22.10;42.10;;;;;;5082666;28;20020;-32
2024/01/09 09:43:07;;;;;;;0.05;0.05;;;22.10;42.10;;;;;;5082794;28;20024;-33
2024/01/09 09:45:33;;;;;;;0.10;0.03;;;22.00;42.10;;;;;;5064782;28;20024;-34
2024/01/09 09:47:59;;;;;;;0.10;0.10;;;22.00;42.10;;;;;;5065063;28;20025;-33
2024/01/09 09:50:26;;;;;;;0.10;0.10;;;22.10;42.10;;;;;;5082221;28;20057;-31
2024/01/09 09:52:52;;;;;;;0.10;0.10;;;22.10;42.20;;;;;;5079798;28;20024;-31
2024/01/09 09:55:18;;;;;;;0.38;0.00;;;22.10;42.20;;;;;;5059601;28;20056;-32
2024/01/09 09:57:45;;;;;;;0.10;0.10;;;22.10;42.80;;;;;;5064181;28;20028;-31
2024/01/09 10:00:11;;;;;;;0.10;0.10;;;22.00;42.30;;;;;;5082805;28;20021;-35
2024/01/09 10:02:50;;;;;;;0.10;0.10;;;22.00;42.30;;;;;;5078825;28;20041;-30
2024/01/09 10:05:18;;;;;;;0.40;0.10;;;22.10;42.30;;;;;;5084339;28;20879;-33
2024/01/09 10:07:48;;;;;;;1.33;0.10;;;22.10;42.30;;;;;;5069083;28;20033;-30
2024/01/09 10:10:14;;;;;;;1.63;0.10;;;22.10;42.30;;;;;;5082343;28;20048;-33
2024/01/09 10:12:41;;;;;;;1.60;0.10;;;22.10;42.40;;;;;;5084424;28;20528;-31
2024/01/09 10:15:12;;;;;;;0.10;0.10;;;22.00;42.40;;;;;;5082575;28;20055;-30
2024/01/09 10:17:41;;;;;;;1.42;0.10;;;22.10;42.50;;;;;;5082336;28;20035;-32
2024/01/09 10:20:08;;;;;;;0.10;0.10;;;22.10;42.40;;;;;;5080546;28;20028;-35
2024/01/09 10:22:35;;;;;;;;;;;22.10;42.40;;;;;;5082797;28;20097;-31
2024/01/09 10:25:10;;;;;;;0.35;0.20;;;22.10;42.50;;;;;;5076044;28;19948;-33
2024/01/09 10:27:37;;;;;;;0.90;0.10;;;22.10;42.50;;;;;;5083121;28;20051;-31
2024/01/09 10:30:07;;;;;;;0.52;0.00;;;22.10;42.60;;;;;;5082465;28;20095;-32
2024/01/09 10:32:34;;;;;;;0.00;0.00;;;22.10;42.50;;;;;;5081095;28;20059;-32
2024/01/09 10:35:03;;;;;;;0.25;0.10;;;22.10;42.50;;;;;;5082866;28;20064;-34
2024/01/09 10:37:30;;;;;;;0.05;0.00;;;22.10;42.50;;;;;;5092516;28;20065;-31
2024/01/09 10:39:57;;;;;;;0.10;0.03;;;22.10;42.50;;;;;;5085229;28;20047;-30
2024/01/09 10:42:23;;;;;;;0.00;0.00;;;22.10;42.60;;;;;;5082381;28;20029;-30
2024/01/09 10:44:50;;;;;;;0.05;0.05;;;22.10;42.60;;;;;;5082272;28;20511;-30
2024/01/09 10:47:17;;;;;;;0.03;0.00;;;22.10;42.50;;;;;;5082484;28;20098;-30
2024/01/09 10:49:44;;;;;;;0.35;0.10;;;22.10;42.50;;;;;;5081796;28;20128;-30
2024/01/09 10:52:11;;;;;;;;;;;22.10;42.60;;;;;;5088351;28;20039;-31
2024/01/09 10:54:39;;;;;;;0.10;0.05;;;22.10;42.60;;;;;;5082932;28;19913;-29
2024/01/09 10:57:06;;;;;;;0.08;0.08;;;22.10;42.60;;;;;;5082598;28;20041;-30
2024/01/09 10:59:33;;;;;;;0.05;0.00;;;22.10;42.70;;;;;;5064906;28;20127;-32
2024/01/09 11:01:59;;;;;;;0.10;0.00;;;22.10;42.60;;;;;;5081259;28;20040;-31
2024/01/09 11:04:25;;;;;;;0.30;0.10;;;22.20;42.60;;;;;;5063945;28;20070;-29
2024/01/09 11:06:52;;;;;;;0.00;0.00;;;22.10;42.70;;;;;;5080255;28;20054;-32
2024/01/09 11:09:18;;;;;;;0.80;0.20;;;22.10;42.70;;;;;;5064066;28;20381;-30
2024/01/09 11:11:44;;;;;;;0.10;0.00;;;22.10;42.70;;;;;;5067551;28;20036;-32
2024/01/09 11:14:11;;;;;;;0.00;0.00;;;22.10;42.80;;;;;;5085464;28;20073;-32
2024/01/09 11:16:40;;;;;;;0.32;0.20;;;22.20;42.80;;;;;;5068786;28;20745;-29
2024/01/09 11:19:07;;;;;;;0.10;0.08;;;22.20;42.80;;;;;;5103809;28;20029;-32
2024/01/09 11:21:33;;;;;;;;;;;22.20;42.90;;;;;;5086904;28;20032;-31
2024/01/09 11:24:02;;;;;;;0.43;0.05;;;22.10;42.80;;;;;;5086306;28;20292;-30
2024/01/09 11:26:39;;;;;;;0.30;0.10;;;22.10;42.80;;;;;;5080169;28;20029;-31
2024/01/09 11:29:05;;;;;;;0.20;0.08;;;22.10;42.90;;;;;;5086057;28;20045;-31
2024/01/09 11:31:31;;;;;;;0.10;0.00;;;22.20;42.90;;;;;;5086345;28;20033;-33
2024/01/09 11:33:57;;;;;;;0.45;0.05;;;22.20;42.90;;;;;;5067069;28;20853;-32
2024/01/09 11:36:26;;;;;;;0.13;0.03;;;22.20;43.00;;;;;;5084281;28;20028;-29
2024/01/09 11:38:53;;;;;;;0.85;0.10;;;22.20;43.10;;;;;;5084742;28;20028;-29
2024/01/09 11:41:23;;;;;;;0.30;0.10;;;22.10;43.10;;;;;;5080943;28;20135;-31
2024/01/09 11:44:00;;;;;;;0.20;0.10;;;22.10;43.20;;;;;;5068098;28;20078;-28
2024/01/09 11:46:27;;;;;;;0.10;0.10;;;22.20;43.10;;;;;;5079706;28;20576;-30
2024/01/09 11:48:53;;;;;;;;;;;22.20;43.10;;;;;;5064389;28;20044;-30
2024/01/09 11:51:21;;;;;;;0.10;0.10;;;22.20;43.20;;;;;;5081455;28;19935;-33
2024/01/09 11:53:48;;;;;;;0.10;0.10;;;22.20;43.20;;;;;;5063001;28;20094;-27
2024/01/09 11:56:14;;;;;;;0.50;0.20;;;22.20;43.30;;;;;;5082231;28;20092;-29
2024/01/09 11:58:42;;;;;;;0.30;0.10;;;22.20;43.30;;;;;;5083603;28;20100;-31
2024/01/09 12:01:08;;;;;;;0.28;0.08;;;22.20;43.30;;;;;;5078771;28;20066;-29
2024/01/09 12:03:34;;;;;;;0.43;0.10;;;22.20;43.20;;;;;;5064761;28;20087;-32
2024/01/09 12:06:02;;;;;;;0.52;0.30;;;22.20;43.30;;;;;;5091005;28;20036;-28
2024/01/09 12:08:29;;;;;;;0.55;0.10;;;22.20;43.40;;;;;;5083310;28;20052;-28
2024/01/09 12:10:55;;;;;;;;;;;22.20;43.40;;;;;;5083791;28;20055;-33
2024/01/09 12:13:21;;;;;;;0.47;0.17;;;22.20;43.40;;;;;;5078980;28;19935;-30
2024/01/09 12:15:47;;;;;;;0.30;0.10;;;22.20;43.40;;;;;;5074587;28;20640;-29
2024/01/09 12:18:13;;;;;;;0.45;0.10;;;22.20;43.30;;;;;;5083019;28;20027;-30
2024/01/09 12:20:41;;;;;;;0.10;0.10;;;22.20;43.40;;;;;;5079629;28;20052;-33
2024/01/09 12:23:07;;;;;;;0.10;0.10;;;22.20;43.50;;;;;;5078657;28;20013;-28
2024/01/09 12:25:33;;;;;;;0.77;0.15;;;22.20;43.50;;;;;;5079581;28;20040;-30
2024/01/09 12:27:59;;;;;;;0.10;0.08;;;22.20;43.50;;;;;;5062206;28;20084;-28
2024/01/09 12:30:25;;;;;;;1.50;0.10;;;22.20;43.50;;;;;;5081133;28;20055;-31
2024/01/09 12:32:53;;;;;;;0.40;0.17;;;22.20;43.40;;;;;;5079328;28;20017;-28
2024/01/09 12:35:20;;;;;;;0.95;0.20;;;22.20;43.40;;;;;;5097045;28;20054;-27
2024/01/09 12:37:46;;;;;;;;;;;22.30;44.10;;;;;;5079168;28;20350;-30
2024/01/09 12:40:16;;;;;;;0.52;0.10;;;22.20;43.50;;;;;;5064411;28;19919;-31
2024/01/09 12:42:42;;;;;;;0.10;0.10;;;22.20;43.60;;;;;;5079208;28;20029;-28
2024/01/09 12:45:11;;;;;;;0.40;0.10;;;22.20;43.60;;;;;;5078779;28;20031;-29